Terminal Aerodrome Forecast
Issued by NWS

Current Version | Previous Version | Text Only | Print | Product List | Glossary On
Versions: 1 2 3 4 5 6 7 8 9 10 11
024
FTUS44 KLIX 061120
TAFMCB
TAF
KMCB 061120Z 0612/0712 00000KT P6SM SKC
     FM062100 36006KT P6SM SCT250
     FM070400 00000KT P6SM FEW250=

USA.gov is the U.S. government's official web portal to all federal, state and local government web resources and services.